Oran, NY

9:33 AM EST on January 25, 2015 (GMT -0500)
Willow Bank Yacht Club | Change Station
CLOSE
Current Station
Personal Weather Station
Location: Cazenovia, NY
Elevation: 1198 ft
Nearby Weather Stations

Elev 1198 ft 42.93 °N, 75.86 °W | Updated 5 seconds ago

Overcast
Overcast
14.0 °F
Feels Like -2 °F
N
15.9
Wind Variable Wind from NNW
Gusts 22.0 mph

Today
High -- | Low -- °F
--% Chance of Precip.
Yesterday
High -- | Low -- °F
Precip. -- in
7:25 AM 5:07 PM
Waxing Crescent, 32% visible
Pressure 29.83 in
Visibility 9.0 miles
Clouds Scattered Clouds 2500 ft
Mostly Cloudy 3000 ft
Mostly Cloudy 3500 ft
Windchill -2 °F
Dew Point 11 °F
Humidity 83%
Rainfall 0.00 in
Snow Depth Not available.
UV 0 out of 12
Pollen .10 out of 12
Air Quality Not available.
Flu Activity Not available.
METAR KSYR 251354Z 32010KT 9SM -SN SCT025 BKN030 BKN035 M09/M12 A2981 RMK AO2 SLP099 P0000 T10891122 $

More Conditions Fewer Conditions

Pressure 29.83 in
Visibility 9.0 miles
Clouds Scattered Clouds 2500 ft
Mostly Cloudy 3000 ft
Mostly Cloudy 3500 ft
Windchill -2 °F
Dew Point 11 °F
Humidity 83%
Rainfall 0.00 in
Snow Depth Not available.
UV 0 out of 12
Pollen .10 out of 12
Air Quality Not available.
Flu Activity Not available.
METAR KSYR 251354Z 32010KT 9SM -SN SCT025 BKN030 BKN035 M09/M12 A2981 RMK AO2 SLP099 P0000 T10891122 $

More Conditions Fewer Conditions

10-Day Weather Forecast

Almanac

Astronomy

Jan. 25, 2015 Rise Set
Actual Time
Civil Twilight
Nautical Twilight
Astronomical Twilight
Moon
Length of Visible Light
Length of Day
Tomorrow will be .
, % of the Moon is Illuminated

Today's Extremes

State Highs State Lows

Community

WunderPhotos

Upload Photos

1,789,898 photos uploaded!

WunderBlogs® & News

Nearby

Air Quality

  Air Quality AQ Index Pollutant
Not available.

Snow Depth

Station Depth Elevation

Earthquake Activity

City Distance Mag. Time & Date
Minimum magnitude displayed is 2.5.

Coastal Water Temperatures

Place Temperature

Nearby Weather Stations